sensor_id;sensor_type;location;lat;lon;timestamp;P1;durP1;ratioP1;P2;durP2;ratioP2
15261;SDS011;7733;51.554;13.590;2023-08-07T00:00:44;2.37;;;2.20;;
15261;SDS011;7733;51.554;13.590;2023-08-07T00:03:10;2.43;;;2.30;;
15261;SDS011;7733;51.554;13.590;2023-08-07T00:05:36;2.50;;;2.40;;
15261;SDS011;7733;51.554;13.590;2023-08-07T00:08:02;2.73;;;2.60;;
15261;SDS011;7733;51.554;13.590;2023-08-07T00:10:28;2.40;;;2.30;;
15261;SDS011;7733;51.554;13.590;2023-08-07T00:12:54;2.87;;;2.77;;
15261;SDS011;7733;51.554;13.590;2023-08-07T00:15:20;2.80;;;2.70;;
15261;SDS011;7733;51.554;13.590;2023-08-07T00:17:46;2.87;;;2.67;;
15261;SDS011;7733;51.554;13.590;2023-08-07T00:20:12;2.67;;;2.57;;
15261;SDS011;7733;51.554;13.590;2023-08-07T00:22:38;3.63;;;2.60;;
15261;SDS011;7733;51.554;13.590;2023-08-07T00:25:03;2.73;;;2.53;;
15261;SDS011;7733;51.554;13.590;2023-08-07T00:27:30;3.17;;;3.03;;
15261;SDS011;7733;51.554;13.590;2023-08-07T00:29:56;2.83;;;2.73;;
15261;SDS011;7733;51.554;13.590;2023-08-07T00:32:21;3.20;;;3.00;;
15261;SDS011;7733;51.554;13.590;2023-08-07T00:34:47;3.40;;;3.20;;
15261;SDS011;7733;51.554;13.590;2023-08-07T00:37:13;3.20;;;3.10;;
15261;SDS011;7733;51.554;13.590;2023-08-07T00:39:38;3.47;;;3.27;;
15261;SDS011;7733;51.554;13.590;2023-08-07T00:42:04;3.20;;;3.10;;
15261;SDS011;7733;51.554;13.590;2023-08-07T00:44:31;3.17;;;2.97;;
15261;SDS011;7733;51.554;13.590;2023-08-07T00:46:56;3.07;;;2.90;;
15261;SDS011;7733;51.554;13.590;2023-08-07T00:49:23;3.40;;;2.90;;
15261;SDS011;7733;51.554;13.590;2023-08-07T00:51:48;3.20;;;3.00;;
15261;SDS011;7733;51.554;13.590;2023-08-07T00:54:15;3.67;;;2.90;;
15261;SDS011;7733;51.554;13.590;2023-08-07T00:56:45;3.23;;;3.03;;
15261;SDS011;7733;51.554;13.590;2023-08-07T00:59:12;3.00;;;2.87;;
15261;SDS011;7733;51.554;13.590;2023-08-07T01:01:40;3.00;;;2.90;;
15261;SDS011;7733;51.554;13.590;2023-08-07T01:04:05;3.70;;;3.40;;
15261;SDS011;7733;51.554;13.590;2023-08-07T01:06:31;3.93;;;3.30;;
15261;SDS011;7733;51.554;13.590;2023-08-07T01:08:57;4.10;;;3.83;;
15261;SDS011;7733;51.554;13.590;2023-08-07T01:14:26;4.37;;;4.00;;
15261;SDS011;7733;51.554;13.590;2023-08-07T01:17:07;4.80;;;4.40;;
15261;SDS011;7733;51.554;13.590;2023-08-07T01:19:36;5.00;;;4.70;;
15261;SDS011;7733;51.554;13.590;2023-08-07T01:24:38;5.70;;;5.30;;
15261;SDS011;7733;51.554;13.590;2023-08-07T01:27:11;5.73;;;5.30;;
15261;SDS011;7733;51.554;13.590;2023-08-07T01:30:26;6.13;;;5.63;;
15261;SDS011;7733;51.554;13.590;2023-08-07T01:32:51;6.37;;;5.97;;
15261;SDS011;7733;51.554;13.590;2023-08-07T01:35:40;6.67;;;6.17;;
15261;SDS011;7733;51.554;13.590;2023-08-07T01:38:13;6.00;;;5.53;;
15261;SDS011;7733;51.554;13.590;2023-08-07T01:40:41;6.43;;;5.83;;
15261;SDS011;7733;51.554;13.590;2023-08-07T01:43:08;6.63;;;6.20;;
15261;SDS011;7733;51.554;13.590;2023-08-07T01:45:34;6.73;;;6.17;;
15261;SDS011;7733;51.554;13.590;2023-08-07T01:48:00;6.77;;;6.17;;
15261;SDS011;7733;51.554;13.590;2023-08-07T01:50:26;6.60;;;5.87;;
15261;SDS011;7733;51.554;13.590;2023-08-07T01:52:52;5.87;;;5.43;;
15261;SDS011;7733;51.554;13.590;2023-08-07T01:55:19;7.50;;;5.83;;
15261;SDS011;7733;51.554;13.590;2023-08-07T01:57:45;6.37;;;5.93;;
15261;SDS011;7733;51.554;13.590;2023-08-07T02:00:11;6.20;;;5.70;;
15261;SDS011;7733;51.554;13.590;2023-08-07T02:02:38;6.13;;;5.77;;
15261;SDS011;7733;51.554;13.590;2023-08-07T02:05:04;6.03;;;5.50;;
15261;SDS011;7733;51.554;13.590;2023-08-07T02:07:30;5.80;;;5.50;;
15261;SDS011;7733;51.554;13.590;2023-08-07T02:09:56;6.57;;;6.00;;
15261;SDS011;7733;51.554;13.590;2023-08-07T02:12:23;6.20;;;5.70;;
15261;SDS011;7733;51.554;13.590;2023-08-07T02:14:52;6.30;;;5.90;;
15261;SDS011;7733;51.554;13.590;2023-08-07T02:17:20;6.47;;;6.07;;
15261;SDS011;7733;51.554;13.590;2023-08-07T02:19:48;7.13;;;6.53;;
15261;SDS011;7733;51.554;13.590;2023-08-07T02:22:14;6.57;;;6.20;;
15261;SDS011;7733;51.554;13.590;2023-08-07T02:24:40;6.27;;;5.90;;
15261;SDS011;7733;51.554;13.590;2023-08-07T02:27:05;7.10;;;6.40;;
15261;SDS011;7733;51.554;13.590;2023-08-07T02:29:31;6.80;;;6.30;;
15261;SDS011;7733;51.554;13.590;2023-08-07T02:31:59;6.07;;;5.67;;
15261;SDS011;7733;51.554;13.590;2023-08-07T02:34:27;6.80;;;6.30;;
15261;SDS011;7733;51.554;13.590;2023-08-07T02:36:56;6.67;;;5.97;;
15261;SDS011;7733;51.554;13.590;2023-08-07T02:39:25;6.23;;;5.73;;
15261;SDS011;7733;51.554;13.590;2023-08-07T02:41:51;6.30;;;5.80;;
15261;SDS011;7733;51.554;13.590;2023-08-07T02:44:17;5.80;;;5.40;;
15261;SDS011;7733;51.554;13.590;2023-08-07T02:46:44;5.93;;;5.50;;
15261;SDS011;7733;51.554;13.590;2023-08-07T02:49:10;5.10;;;4.80;;
15261;SDS011;7733;51.554;13.590;2023-08-07T02:51:36;5.47;;;5.07;;
15261;SDS011;7733;51.554;13.590;2023-08-07T02:54:02;5.90;;;5.40;;
15261;SDS011;7733;51.554;13.590;2023-08-07T02:56:28;5.77;;;5.37;;
15261;SDS011;7733;51.554;13.590;2023-08-07T02:58:53;4.97;;;4.40;;
15261;SDS011;7733;51.554;13.590;2023-08-07T03:01:23;4.37;;;4.17;;
15261;SDS011;7733;51.554;13.590;2023-08-07T03:03:48;4.13;;;3.90;;
15261;SDS011;7733;51.554;13.590;2023-08-07T03:06:14;4.90;;;4.23;;
15261;SDS011;7733;51.554;13.590;2023-08-07T03:08:40;4.57;;;4.17;;
15261;SDS011;7733;51.554;13.590;2023-08-07T03:11:05;4.63;;;4.00;;
15261;SDS011;7733;51.554;13.590;2023-08-07T03:13:31;4.17;;;3.97;;
15261;SDS011;7733;51.554;13.590;2023-08-07T03:15:59;4.53;;;3.97;;
15261;SDS011;7733;51.554;13.590;2023-08-07T03:18:33;4.13;;;3.77;;
15261;SDS011;7733;51.554;13.590;2023-08-07T03:20:59;4.00;;;3.70;;
15261;SDS011;7733;51.554;13.590;2023-08-07T03:23:25;4.00;;;3.80;;
15261;SDS011;7733;51.554;13.590;2023-08-07T03:26:08;4.37;;;4.03;;
15261;SDS011;7733;51.554;13.590;2023-08-07T03:28:36;3.33;;;3.23;;
15261;SDS011;7733;51.554;13.590;2023-08-07T03:31:02;3.70;;;3.43;;
15261;SDS011;7733;51.554;13.590;2023-08-07T03:33:29;4.20;;;3.97;;
15261;SDS011;7733;51.554;13.590;2023-08-07T03:35:54;5.43;;;3.73;;
15261;SDS011;7733;51.554;13.590;2023-08-07T03:38:20;3.53;;;3.30;;
15261;SDS011;7733;51.554;13.590;2023-08-07T03:40:46;3.87;;;3.60;;
15261;SDS011;7733;51.554;13.590;2023-08-07T03:43:12;3.70;;;3.40;;
15261;SDS011;7733;51.554;13.590;2023-08-07T03:45:38;3.67;;;3.47;;
15261;SDS011;7733;51.554;13.590;2023-08-07T03:48:05;3.60;;;3.40;;
15261;SDS011;7733;51.554;13.590;2023-08-07T03:50:31;4.23;;;3.50;;
15261;SDS011;7733;51.554;13.590;2023-08-07T03:52:59;3.93;;;3.63;;
15261;SDS011;7733;51.554;13.590;2023-08-07T03:55:26;4.47;;;4.17;;
15261;SDS011;7733;51.554;13.590;2023-08-07T03:57:52;4.23;;;3.93;;
15261;SDS011;7733;51.554;13.590;2023-08-07T04:00:18;6.70;;;4.17;;
15261;SDS011;7733;51.554;13.590;2023-08-07T04:02:44;4.27;;;3.87;;
15261;SDS011;7733;51.554;13.590;2023-08-07T04:05:10;4.57;;;4.27;;
15261;SDS011;7733;51.554;13.590;2023-08-07T04:07:35;4.53;;;4.27;;
15261;SDS011;7733;51.554;13.590;2023-08-07T04:10:01;4.80;;;4.40;;
15261;SDS011;7733;51.554;13.590;2023-08-07T04:12:27;7.13;;;4.97;;
15261;SDS011;7733;51.554;13.590;2023-08-07T04:14:53;4.83;;;4.43;;
15261;SDS011;7733;51.554;13.590;2023-08-07T04:17:19;4.80;;;4.47;;
15261;SDS011;7733;51.554;13.590;2023-08-07T04:19:44;5.10;;;4.70;;
15261;SDS011;7733;51.554;13.590;2023-08-07T04:22:10;5.63;;;5.10;;
15261;SDS011;7733;51.554;13.590;2023-08-07T04:24:36;5.00;;;4.60;;
15261;SDS011;7733;51.554;13.590;2023-08-07T04:27:01;5.83;;;5.33;;
15261;SDS011;7733;51.554;13.590;2023-08-07T04:29:27;6.10;;;5.60;;
15261;SDS011;7733;51.554;13.590;2023-08-07T04:31:53;6.17;;;5.70;;
15261;SDS011;7733;51.554;13.590;2023-08-07T04:34:19;5.53;;;5.20;;
15261;SDS011;7733;51.554;13.590;2023-08-07T04:36:45;7.10;;;6.00;;
15261;SDS011;7733;51.554;13.590;2023-08-07T04:39:10;6.70;;;5.70;;
15261;SDS011;7733;51.554;13.590;2023-08-07T04:41:38;6.03;;;5.63;;
15261;SDS011;7733;51.554;13.590;2023-08-07T04:44:04;6.00;;;5.50;;
15261;SDS011;7733;51.554;13.590;2023-08-07T04:46:30;7.70;;;5.77;;
15261;SDS011;7733;51.554;13.590;2023-08-07T04:48:55;6.60;;;6.00;;
15261;SDS011;7733;51.554;13.590;2023-08-07T04:51:21;6.90;;;5.90;;
15261;SDS011;7733;51.554;13.590;2023-08-07T04:53:47;6.37;;;5.87;;
15261;SDS011;7733;51.554;13.590;2023-08-07T04:56:15;6.73;;;6.23;;
15261;SDS011;7733;51.554;13.590;2023-08-07T04:58:42;7.17;;;6.57;;
15261;SDS011;7733;51.554;13.590;2023-08-07T05:01:08;7.67;;;6.97;;
15261;SDS011;7733;51.554;13.590;2023-08-07T05:03:34;9.47;;;8.00;;
15261;SDS011;7733;51.554;13.590;2023-08-07T05:06:00;9.13;;;8.30;;
15261;SDS011;7733;51.554;13.590;2023-08-07T05:08:26;9.90;;;9.00;;
15261;SDS011;7733;51.554;13.590;2023-08-07T05:10:52;9.73;;;9.00;;
15261;SDS011;7733;51.554;13.590;2023-08-07T05:13:19;10.73;;;9.70;;
15261;SDS011;7733;51.554;13.590;2023-08-07T05:15:46;10.20;;;9.37;;
15261;SDS011;7733;51.554;13.590;2023-08-07T05:18:13;10.73;;;9.63;;
15261;SDS011;7733;51.554;13.590;2023-08-07T05:20:39;9.80;;;9.20;;
15261;SDS011;7733;51.554;13.590;2023-08-07T05:23:05;10.70;;;9.90;;
15261;SDS011;7733;51.554;13.590;2023-08-07T05:25:31;10.53;;;9.77;;
15261;SDS011;7733;51.554;13.590;2023-08-07T05:27:57;9.80;;;9.10;;
15261;SDS011;7733;51.554;13.590;2023-08-07T05:30:23;10.27;;;9.23;;
15261;SDS011;7733;51.554;13.590;2023-08-07T05:32:49;10.20;;;9.40;;
15261;SDS011;7733;51.554;13.590;2023-08-07T05:35:14;9.83;;;8.93;;
15261;SDS011;7733;51.554;13.590;2023-08-07T05:37:40;9.90;;;9.00;;
15261;SDS011;7733;51.554;13.590;2023-08-07T05:40:06;9.50;;;8.87;;
15261;SDS011;7733;51.554;13.590;2023-08-07T05:42:32;9.70;;;8.80;;
15261;SDS011;7733;51.554;13.590;2023-08-07T05:44:59;12.03;;;8.47;;
15261;SDS011;7733;51.554;13.590;2023-08-07T05:47:25;9.47;;;8.37;;
15261;SDS011;7733;51.554;13.590;2023-08-07T05:49:51;9.07;;;7.90;;
15261;SDS011;7733;51.554;13.590;2023-08-07T05:52:17;8.90;;;8.20;;
15261;SDS011;7733;51.554;13.590;2023-08-07T05:54:43;8.30;;;7.63;;
15261;SDS011;7733;51.554;13.590;2023-08-07T05:57:09;17.10;;;7.40;;
15261;SDS011;7733;51.554;13.590;2023-08-07T05:59:35;7.17;;;6.63;;
15261;SDS011;7733;51.554;13.590;2023-08-07T06:02:01;8.00;;;7.50;;
15261;SDS011;7733;51.554;13.590;2023-08-07T06:04:28;7.60;;;6.90;;
15261;SDS011;7733;51.554;13.590;2023-08-07T06:06:54;7.57;;;6.87;;
15261;SDS011;7733;51.554;13.590;2023-08-07T06:09:19;8.07;;;7.37;;
15261;SDS011;7733;51.554;13.590;2023-08-07T06:11:46;7.63;;;7.03;;
15261;SDS011;7733;51.554;13.590;2023-08-07T06:14:13;7.77;;;6.97;;
15261;SDS011;7733;51.554;13.590;2023-08-07T06:16:39;9.53;;;6.93;;
15261;SDS011;7733;51.554;13.590;2023-08-07T06:19:05;6.93;;;6.37;;
15261;SDS011;7733;51.554;13.590;2023-08-07T06:21:31;6.07;;;5.57;;
15261;SDS011;7733;51.554;13.590;2023-08-07T06:23:56;5.70;;;5.30;;
15261;SDS011;7733;51.554;13.590;2023-08-07T06:26:22;5.23;;;4.83;;
15261;SDS011;7733;51.554;13.590;2023-08-07T06:28:48;5.30;;;4.80;;
15261;SDS011;7733;51.554;13.590;2023-08-07T06:31:15;5.33;;;4.93;;
15261;SDS011;7733;51.554;13.590;2023-08-07T06:33:41;9.00;;;5.17;;
15261;SDS011;7733;51.554;13.590;2023-08-07T06:36:07;4.33;;;4.00;;
15261;SDS011;7733;51.554;13.590;2023-08-07T06:38:33;4.90;;;4.23;;
15261;SDS011;7733;51.554;13.590;2023-08-07T06:40:59;4.43;;;3.90;;
15261;SDS011;7733;51.554;13.590;2023-08-07T06:43:25;4.70;;;4.30;;
15261;SDS011;7733;51.554;13.590;2023-08-07T06:45:52;3.60;;;3.40;;
15261;SDS011;7733;51.554;13.590;2023-08-07T06:48:19;4.47;;;4.07;;
15261;SDS011;7733;51.554;13.590;2023-08-07T06:50:48;4.00;;;3.80;;
15261;SDS011;7733;51.554;13.590;2023-08-07T06:53:15;6.63;;;3.80;;
15261;SDS011;7733;51.554;13.590;2023-08-07T06:55:42;4.33;;;4.00;;
15261;SDS011;7733;51.554;13.590;2023-08-07T06:58:08;4.30;;;4.10;;
15261;SDS011;7733;51.554;13.590;2023-08-07T07:00:35;10.63;;;4.33;;
15261;SDS011;7733;51.554;13.590;2023-08-07T07:03:02;4.53;;;4.20;;
15261;SDS011;7733;51.554;13.590;2023-08-07T07:05:29;4.87;;;4.00;;
15261;SDS011;7733;51.554;13.590;2023-08-07T07:07:57;4.67;;;4.37;;
15261;SDS011;7733;51.554;13.590;2023-08-07T07:10:23;5.13;;;4.30;;
15261;SDS011;7733;51.554;13.590;2023-08-07T07:12:49;4.43;;;4.13;;
15261;SDS011;7733;51.554;13.590;2023-08-07T07:15:15;4.60;;;4.30;;
15261;SDS011;7733;51.554;13.590;2023-08-07T07:17:42;17.73;;;5.70;;
15261;SDS011;7733;51.554;13.590;2023-08-07T07:20:07;4.50;;;4.20;;
15261;SDS011;7733;51.554;13.590;2023-08-07T07:22:36;4.87;;;4.47;;
15261;SDS011;7733;51.554;13.590;2023-08-07T07:25:02;4.70;;;4.20;;
15261;SDS011;7733;51.554;13.590;2023-08-07T07:27:29;4.50;;;4.10;;
15261;SDS011;7733;51.554;13.590;2023-08-07T07:29:54;4.80;;;4.40;;
15261;SDS011;7733;51.554;13.590;2023-08-07T07:32:20;7.33;;;6.80;;
15261;SDS011;7733;51.554;13.590;2023-08-07T07:34:46;4.33;;;4.03;;
15261;SDS011;7733;51.554;13.590;2023-08-07T07:37:12;4.13;;;3.93;;
15261;SDS011;7733;51.554;13.590;2023-08-07T07:39:39;3.73;;;3.50;;
15261;SDS011;7733;51.554;13.590;2023-08-07T07:42:06;4.13;;;3.47;;
15261;SDS011;7733;51.554;13.590;2023-08-07T07:44:32;3.40;;;3.10;;
15261;SDS011;7733;51.554;13.590;2023-08-07T07:47:00;3.10;;;2.90;;
15261;SDS011;7733;51.554;13.590;2023-08-07T07:49:26;3.33;;;3.17;;
15261;SDS011;7733;51.554;13.590;2023-08-07T07:51:51;3.43;;;3.20;;
15261;SDS011;7733;51.554;13.590;2023-08-07T07:54:17;3.43;;;3.07;;
15261;SDS011;7733;51.554;13.590;2023-08-07T07:56:43;4.67;;;3.00;;
15261;SDS011;7733;51.554;13.590;2023-08-07T07:59:09;3.63;;;3.17;;
15261;SDS011;7733;51.554;13.590;2023-08-07T08:01:34;3.63;;;3.47;;
15261;SDS011;7733;51.554;13.590;2023-08-07T08:04:01;4.53;;;3.10;;
15261;SDS011;7733;51.554;13.590;2023-08-07T08:06:26;3.03;;;2.83;;
15261;SDS011;7733;51.554;13.590;2023-08-07T08:08:52;2.70;;;2.60;;
15261;SDS011;7733;51.554;13.590;2023-08-07T08:11:18;3.00;;;2.80;;
15261;SDS011;7733;51.554;13.590;2023-08-07T08:13:44;3.27;;;2.97;;
15261;SDS011;7733;51.554;13.590;2023-08-07T08:16:09;3.17;;;2.83;;
15261;SDS011;7733;51.554;13.590;2023-08-07T08:18:35;3.20;;;2.87;;
15261;SDS011;7733;51.554;13.590;2023-08-07T08:21:01;2.60;;;2.40;;
15261;SDS011;7733;51.554;13.590;2023-08-07T08:23:26;3.43;;;2.53;;
15261;SDS011;7733;51.554;13.590;2023-08-07T08:25:52;3.40;;;2.40;;
15261;SDS011;7733;51.554;13.590;2023-08-07T08:28:18;3.53;;;2.27;;
15261;SDS011;7733;51.554;13.590;2023-08-07T08:30:44;2.57;;;2.37;;
15261;SDS011;7733;51.554;13.590;2023-08-07T08:33:09;2.90;;;2.67;;
15261;SDS011;7733;51.554;13.590;2023-08-07T08:35:38;2.40;;;2.30;;
15261;SDS011;7733;51.554;13.590;2023-08-07T08:38:04;2.70;;;2.50;;
15261;SDS011;7733;51.554;13.590;2023-08-07T08:40:30;2.70;;;2.27;;
15261;SDS011;7733;51.554;13.590;2023-08-07T08:42:56;2.13;;;2.00;;
15261;SDS011;7733;51.554;13.590;2023-08-07T08:45:25;3.03;;;2.20;;
15261;SDS011;7733;51.554;13.590;2023-08-07T08:47:54;2.37;;;2.20;;
15261;SDS011;7733;51.554;13.590;2023-08-07T08:50:26;2.20;;;2.10;;
15261;SDS011;7733;51.554;13.590;2023-08-07T08:52:53;2.63;;;1.83;;
15261;SDS011;7733;51.554;13.590;2023-08-07T08:55:21;3.20;;;2.10;;
15261;SDS011;7733;51.554;13.590;2023-08-07T08:57:48;3.43;;;3.13;;
15261;SDS011;7733;51.554;13.590;2023-08-07T09:00:15;2.87;;;1.90;;
15261;SDS011;7733;51.554;13.590;2023-08-07T09:02:47;1.83;;;1.73;;
15261;SDS011;7733;51.554;13.590;2023-08-07T09:05:14;4.57;;;2.17;;
15261;SDS011;7733;51.554;13.590;2023-08-07T09:07:41;1.60;;;1.60;;
15261;SDS011;7733;51.554;13.590;2023-08-07T09:10:09;2.00;;;1.90;;
15261;SDS011;7733;51.554;13.590;2023-08-07T09:12:39;1.93;;;1.80;;
15261;SDS011;7733;51.554;13.590;2023-08-07T09:15:11;2.77;;;2.20;;
15261;SDS011;7733;51.554;13.590;2023-08-07T09:17:41;2.90;;;2.70;;
15261;SDS011;7733;51.554;13.590;2023-08-07T09:20:11;4.30;;;2.00;;
15261;SDS011;7733;51.554;13.590;2023-08-07T09:22:39;2.60;;;1.80;;
15261;SDS011;7733;51.554;13.590;2023-08-07T09:25:08;1.87;;;1.77;;
15261;SDS011;7733;51.554;13.590;2023-08-07T09:27:38;3.83;;;2.17;;
15261;SDS011;7733;51.554;13.590;2023-08-07T09:30:06;2.03;;;1.80;;
15261;SDS011;7733;51.554;13.590;2023-08-07T09:32:34;2.20;;;1.57;;
15261;SDS011;7733;51.554;13.590;2023-08-07T09:35:02;2.40;;;1.53;;
15261;SDS011;7733;51.554;13.590;2023-08-07T09:37:32;1.77;;;1.67;;
15261;SDS011;7733;51.554;13.590;2023-08-07T09:39:59;3.17;;;1.40;;
15261;SDS011;7733;51.554;13.590;2023-08-07T09:42:26;1.20;;;1.20;;
15261;SDS011;7733;51.554;13.590;2023-08-07T09:44:58;1.57;;;1.30;;
15261;SDS011;7733;51.554;13.590;2023-08-07T09:47:43;3.10;;;1.30;;
15261;SDS011;7733;51.554;13.590;2023-08-07T09:50:09;1.50;;;1.40;;
15261;SDS011;7733;51.554;13.590;2023-08-07T09:52:50;1.40;;;1.30;;
15261;SDS011;7733;51.554;13.590;2023-08-07T09:55:16;1.40;;;1.40;;
15261;SDS011;7733;51.554;13.590;2023-08-07T09:57:42;2.30;;;1.50;;
15261;SDS011;7733;51.554;13.590;2023-08-07T10:00:09;1.93;;;1.17;;
15261;SDS011;7733;51.554;13.590;2023-08-07T10:02:39;1.50;;;1.40;;
15261;SDS011;7733;51.554;13.590;2023-08-07T10:05:05;1.20;;;1.20;;
15261;SDS011;7733;51.554;13.590;2023-08-07T10:07:33;1.40;;;1.30;;
15261;SDS011;7733;51.554;13.590;2023-08-07T10:09:59;1.63;;;1.40;;
15261;SDS011;7733;51.554;13.590;2023-08-07T10:12:28;1.30;;;1.30;;
15261;SDS011;7733;51.554;13.590;2023-08-07T10:14:54;1.23;;;1.23;;
15261;SDS011;7733;51.554;13.590;2023-08-07T10:17:21;1.60;;;1.50;;
15261;SDS011;7733;51.554;13.590;2023-08-07T10:19:48;2.37;;;1.70;;
15261;SDS011;7733;51.554;13.590;2023-08-07T10:22:20;1.70;;;1.60;;
15261;SDS011;7733;51.554;13.590;2023-08-07T10:24:52;1.83;;;1.73;;
15261;SDS011;7733;51.554;13.590;2023-08-07T10:27:22;1.63;;;1.37;;
15261;SDS011;7733;51.554;13.590;2023-08-07T10:29:51;1.77;;;1.50;;
15261;SDS011;7733;51.554;13.590;2023-08-07T10:32:19;1.63;;;1.53;;
15261;SDS011;7733;51.554;13.590;2023-08-07T10:34:51;1.73;;;1.50;;
15261;SDS011;7733;51.554;13.590;2023-08-07T10:40:10;1.23;;;1.13;;
15261;SDS011;7733;51.554;13.590;2023-08-07T10:42:59;1.37;;;1.07;;
15261;SDS011;7733;51.554;13.590;2023-08-07T10:45:36;1.30;;;1.20;;
15261;SDS011;7733;51.554;13.590;2023-08-07T10:50:49;0.97;;;0.97;;
15261;SDS011;7733;51.554;13.590;2023-08-07T10:53:32;0.90;;;0.80;;
15261;SDS011;7733;51.554;13.590;2023-08-07T10:56:08;1.53;;;1.10;;
15261;SDS011;7733;51.554;13.590;2023-08-07T10:58:36;1.00;;;1.00;;
15261;SDS011;7733;51.554;13.590;2023-08-07T11:03:45;1.03;;;1.03;;
15261;SDS011;7733;51.554;13.590;2023-08-07T11:06:25;1.10;;;1.00;;
15261;SDS011;7733;51.554;13.590;2023-08-07T11:08:56;1.73;;;1.00;;
15261;SDS011;7733;51.554;13.590;2023-08-07T11:11:23;1.07;;;1.07;;
15261;SDS011;7733;51.554;13.590;2023-08-07T11:13:49;0.97;;;0.97;;
15261;SDS011;7733;51.554;13.590;2023-08-07T11:16:16;1.00;;;1.00;;
15261;SDS011;7733;51.554;13.590;2023-08-07T11:18:45;0.70;;;0.70;;
15261;SDS011;7733;51.554;13.590;2023-08-07T11:21:13;1.10;;;1.00;;
15261;SDS011;7733;51.554;13.590;2023-08-07T11:23:39;3.90;;;1.00;;
15261;SDS011;7733;51.554;13.590;2023-08-07T11:26:06;3.60;;;0.93;;
15261;SDS011;7733;51.554;13.590;2023-08-07T11:28:34;0.93;;;0.93;;
15261;SDS011;7733;51.554;13.590;2023-08-07T11:31:00;0.77;;;0.77;;
15261;SDS011;7733;51.554;13.590;2023-08-07T11:33:26;2.40;;;1.00;;
15261;SDS011;7733;51.554;13.590;2023-08-07T11:35:54;3.80;;;1.50;;
15261;SDS011;7733;51.554;13.590;2023-08-07T11:38:37;0.80;;;0.80;;
15261;SDS011;7733;51.554;13.590;2023-08-07T11:41:06;1.00;;;0.90;;
15261;SDS011;7733;51.554;13.590;2023-08-07T11:43:35;3.83;;;1.50;;
15261;SDS011;7733;51.554;13.590;2023-08-07T11:46:02;1.00;;;1.00;;
15261;SDS011;7733;51.554;13.590;2023-08-07T11:48:31;3.10;;;1.17;;
15261;SDS011;7733;51.554;13.590;2023-08-07T11:50:59;1.20;;;1.20;;
15261;SDS011;7733;51.554;13.590;2023-08-07T11:53:27;2.77;;;1.17;;
15261;SDS011;7733;51.554;13.590;2023-08-07T11:55:59;2.07;;;1.20;;
15261;SDS011;7733;51.554;13.590;2023-08-07T11:58:42;1.50;;;1.10;;
15261;SDS011;7733;51.554;13.590;2023-08-07T12:01:15;2.97;;;1.57;;
15261;SDS011;7733;51.554;13.590;2023-08-07T12:06:31;2.57;;;1.07;;
15261;SDS011;7733;51.554;13.590;2023-08-07T12:08:57;2.73;;;1.30;;
15261;SDS011;7733;51.554;13.590;2023-08-07T12:11:24;1.37;;;1.10;;
15261;SDS011;7733;51.554;13.590;2023-08-07T12:13:50;1.13;;;1.13;;
15261;SDS011;7733;51.554;13.590;2023-08-07T12:16:16;0.87;;;0.80;;
15261;SDS011;7733;51.554;13.590;2023-08-07T12:18:44;2.17;;;0.90;;
15261;SDS011;7733;51.554;13.590;2023-08-07T12:21:18;5.07;;;1.30;;
15261;SDS011;7733;51.554;13.590;2023-08-07T12:23:49;2.13;;;0.87;;
15261;SDS011;7733;51.554;13.590;2023-08-07T12:26:16;0.70;;;0.70;;
15261;SDS011;7733;51.554;13.590;2023-08-07T12:28:42;1.37;;;1.27;;
15261;SDS011;7733;51.554;13.590;2023-08-07T12:31:08;1.53;;;1.00;;
15261;SDS011;7733;51.554;13.590;2023-08-07T12:33:34;2.90;;;1.17;;
15261;SDS011;7733;51.554;13.590;2023-08-07T12:36:00;2.13;;;1.20;;
15261;SDS011;7733;51.554;13.590;2023-08-07T12:38:27;0.73;;;0.60;;
15261;SDS011;7733;51.554;13.590;2023-08-07T12:40:54;0.80;;;0.80;;
15261;SDS011;7733;51.554;13.590;2023-08-07T12:43:20;1.63;;;0.80;;
15261;SDS011;7733;51.554;13.590;2023-08-07T12:45:46;0.67;;;0.60;;
15261;SDS011;7733;51.554;13.590;2023-08-07T12:48:12;1.27;;;0.90;;
15261;SDS011;7733;51.554;13.590;2023-08-07T12:50:38;2.37;;;0.90;;
15261;SDS011;7733;51.554;13.590;2023-08-07T12:53:04;0.50;;;0.50;;
15261;SDS011;7733;51.554;13.590;2023-08-07T12:55:31;0.80;;;0.80;;
15261;SDS011;7733;51.554;13.590;2023-08-07T12:57:57;1.60;;;0.90;;
15261;SDS011;7733;51.554;13.590;2023-08-07T13:00:23;4.83;;;1.40;;
15261;SDS011;7733;51.554;13.590;2023-08-07T13:02:50;13.17;;;2.90;;
15261;SDS011;7733;51.554;13.590;2023-08-07T13:05:17;6.83;;;2.07;;
15261;SDS011;7733;51.554;13.590;2023-08-07T13:07:45;0.97;;;0.97;;
15261;SDS011;7733;51.554;13.590;2023-08-07T13:10:12;0.90;;;0.90;;
15261;SDS011;7733;51.554;13.590;2023-08-07T13:12:40;1.60;;;1.10;;
15261;SDS011;7733;51.554;13.590;2023-08-07T13:15:09;2.17;;;1.00;;
15261;SDS011;7733;51.554;13.590;2023-08-07T13:17:39;1.13;;;1.07;;
15261;SDS011;7733;51.554;13.590;2023-08-07T13:20:06;0.80;;;0.80;;
15261;SDS011;7733;51.554;13.590;2023-08-07T13:22:36;0.60;;;0.47;;
15261;SDS011;7733;51.554;13.590;2023-08-07T13:25:03;0.90;;;0.90;;
15261;SDS011;7733;51.554;13.590;2023-08-07T13:27:30;1.00;;;1.00;;
15261;SDS011;7733;51.554;13.590;2023-08-07T13:29:58;4.97;;;2.17;;
15261;SDS011;7733;51.554;13.590;2023-08-07T13:32:24;1.10;;;1.00;;
15261;SDS011;7733;51.554;13.590;2023-08-07T13:34:51;0.90;;;0.90;;
15261;SDS011;7733;51.554;13.590;2023-08-07T13:37:18;0.90;;;0.90;;
15261;SDS011;7733;51.554;13.590;2023-08-07T13:39:43;1.63;;;1.00;;
15261;SDS011;7733;51.554;13.590;2023-08-07T13:42:09;2.10;;;0.90;;
15261;SDS011;7733;51.554;13.590;2023-08-07T13:44:35;1.47;;;1.00;;
15261;SDS011;7733;51.554;13.590;2023-08-07T13:47:02;0.63;;;0.63;;
15261;SDS011;7733;51.554;13.590;2023-08-07T13:49:30;1.17;;;0.73;;
15261;SDS011;7733;51.554;13.590;2023-08-07T13:51:55;1.07;;;0.97;;
15261;SDS011;7733;51.554;13.590;2023-08-07T13:54:21;1.40;;;1.13;;
15261;SDS011;7733;51.554;13.590;2023-08-07T13:56:47;4.07;;;3.77;;
15261;SDS011;7733;51.554;13.590;2023-08-07T13:59:13;0.70;;;0.70;;
15261;SDS011;7733;51.554;13.590;2023-08-07T14:01:39;1.13;;;0.80;;
15261;SDS011;7733;51.554;13.590;2023-08-07T14:04:04;0.97;;;0.97;;
15261;SDS011;7733;51.554;13.590;2023-08-07T14:06:31;4.33;;;0.97;;
15261;SDS011;7733;51.554;13.590;2023-08-07T14:08:56;1.80;;;1.10;;
15261;SDS011;7733;51.554;13.590;2023-08-07T14:11:22;1.37;;;0.90;;
15261;SDS011;7733;51.554;13.590;2023-08-07T14:13:52;1.90;;;0.90;;
15261;SDS011;7733;51.554;13.590;2023-08-07T14:16:18;1.43;;;0.77;;
15261;SDS011;7733;51.554;13.590;2023-08-07T14:18:44;0.90;;;0.90;;
15261;SDS011;7733;51.554;13.590;2023-08-07T14:21:10;2.20;;;0.90;;
15261;SDS011;7733;51.554;13.590;2023-08-07T14:23:35;1.80;;;1.70;;
15261;SDS011;7733;51.554;13.590;2023-08-07T14:26:01;3.80;;;3.47;;
15261;SDS011;7733;51.554;13.590;2023-08-07T14:28:27;1.27;;;0.90;;
15261;SDS011;7733;51.554;13.590;2023-08-07T14:30:53;1.33;;;0.83;;
15261;SDS011;7733;51.554;13.590;2023-08-07T14:33:24;1.13;;;1.03;;
15261;SDS011;7733;51.554;13.590;2023-08-07T14:35:50;1.77;;;1.03;;
15261;SDS011;7733;51.554;13.590;2023-08-07T14:38:15;3.03;;;1.30;;
15261;SDS011;7733;51.554;13.590;2023-08-07T14:40:41;1.20;;;1.10;;
15261;SDS011;7733;51.554;13.590;2023-08-07T14:43:08;1.10;;;1.00;;
15261;SDS011;7733;51.554;13.590;2023-08-07T14:45:35;1.47;;;1.10;;
15261;SDS011;7733;51.554;13.590;2023-08-07T14:48:02;2.47;;;1.13;;
15261;SDS011;7733;51.554;13.590;2023-08-07T14:50:28;1.60;;;1.00;;
15261;SDS011;7733;51.554;13.590;2023-08-07T14:52:54;1.07;;;0.93;;
15261;SDS011;7733;51.554;13.590;2023-08-07T14:55:20;1.87;;;1.10;;
15261;SDS011;7733;51.554;13.590;2023-08-07T14:57:45;0.93;;;0.80;;
15261;SDS011;7733;51.554;13.590;2023-08-07T15:00:11;1.70;;;0.83;;
15261;SDS011;7733;51.554;13.590;2023-08-07T15:02:38;1.40;;;1.30;;
15261;SDS011;7733;51.554;13.590;2023-08-07T15:05:05;4.00;;;1.20;;